createdAt,value
2019-01-27T00:02:03.105Z,19.70
2019-01-27T00:04:32.237Z,19.57
2019-01-27T00:07:01.373Z,22.97
2019-01-27T00:09:30.469Z,23.30
2019-01-27T00:11:59.608Z,16.27
2019-01-27T00:14:28.669Z,22.63
2019-01-27T00:16:57.763Z,24.60
2019-01-27T00:19:26.923Z,17.87
2019-01-27T00:21:56.075Z,23.73
2019-01-27T00:24:25.210Z,22.93
2019-01-27T00:26:54.361Z,23.07
2019-01-27T00:29:23.675Z,22.23
2019-01-27T00:31:52.802Z,22.07
2019-01-27T00:34:21.956Z,21.00
2019-01-27T00:36:51.089Z,24.17
2019-01-27T00:39:20.204Z,21.47
2019-01-27T00:41:49.265Z,21.83
2019-01-27T00:44:18.414Z,23.87
2019-01-27T00:46:47.584Z,20.90
2019-01-27T00:49:16.658Z,27.00
2019-01-27T00:51:45.789Z,24.63
2019-01-27T00:54:14.909Z,21.73
2019-01-27T00:56:44.046Z,23.13
2019-01-27T00:59:13.129Z,24.17
2019-01-27T01:01:42.219Z,20.77
2019-01-27T01:04:11.533Z,22.80
2019-01-27T01:06:40.963Z,22.67
2019-01-27T01:09:11.526Z,23.47
2019-01-27T01:11:40.672Z,22.83
2019-01-27T01:14:09.738Z,21.33
2019-01-27T01:16:38.817Z,22.33
2019-01-27T01:19:07.967Z,26.33
2019-01-27T01:21:37.091Z,28.90
2019-01-27T01:24:06.195Z,22.63
2019-01-27T01:26:35.272Z,20.53
2019-01-27T01:29:04.452Z,23.37
2019-01-27T01:31:33.527Z,23.83
2019-01-27T01:34:02.626Z,22.87
2019-01-27T01:36:31.801Z,29.10
2019-01-27T01:39:00.890Z,26.80
2019-01-27T01:41:30.009Z,26.17
2019-01-27T01:43:59.168Z,28.30
2019-01-27T01:46:28.327Z,26.40
2019-01-27T01:48:57.476Z,25.90
2019-01-27T01:51:26.581Z,23.97
2019-01-27T01:53:55.651Z,29.87
2019-01-27T01:56:24.774Z,18.50
2019-01-27T01:58:53.940Z,26.77
2019-01-27T02:01:23.095Z,23.30
2019-01-27T02:03:52.229Z,25.17
2019-01-27T02:06:21.561Z,22.80
2019-01-27T02:08:50.733Z,20.40
2019-01-27T02:11:19.854Z,18.73
2019-01-27T02:13:49.041Z,19.10
2019-01-27T02:16:18.160Z,20.27
2019-01-27T02:18:47.312Z,21.60
2019-01-27T02:21:16.463Z,16.47
2019-01-27T02:23:45.540Z,19.67
2019-01-27T02:26:14.642Z,21.83
2019-01-27T02:28:43.852Z,19.10
2019-01-27T02:31:12.962Z,18.90
2019-01-27T02:33:42.078Z,18.17
2019-01-27T02:36:11.200Z,18.13
2019-01-27T02:38:40.270Z,16.77
2019-01-27T02:41:09.342Z,19.50
2019-01-27T02:43:38.519Z,19.07
2019-01-27T02:46:07.819Z,17.63
2019-01-27T02:48:36.899Z,17.50
2019-01-27T02:51:06.040Z,17.57
2019-01-27T02:53:35.205Z,18.53
2019-01-27T02:56:04.496Z,19.13
2019-01-27T02:58:33.631Z,21.43
2019-01-27T03:01:02.778Z,20.17
2019-01-27T03:03:31.826Z,16.77
2019-01-27T03:06:23.166Z,21.47
2019-01-27T03:08:55.505Z,20.87
2019-01-27T03:11:24.589Z,21.43
2019-01-27T03:13:53.735Z,22.87
2019-01-27T03:16:22.840Z,22.23
2019-01-27T03:18:51.932Z,24.90
2019-01-27T03:21:21.119Z,23.80
2019-01-27T03:23:50.222Z,24.83
2019-01-27T03:26:19.358Z,24.00
2019-01-27T03:28:48.471Z,23.60
2019-01-27T03:31:17.634Z,22.90
2019-01-27T03:33:46.749Z,22.67
2019-01-27T03:36:15.844Z,25.77
2019-01-27T03:38:44.996Z,25.93
2019-01-27T03:41:14.099Z,21.53
2019-01-27T03:43:43.213Z,22.63
2019-01-27T03:46:12.298Z,20.60
2019-01-27T03:48:41.445Z,22.00
2019-01-27T03:51:10.564Z,18.00
2019-01-27T03:53:39.669Z,18.43
2019-01-27T03:56:08.740Z,19.27
2019-01-27T03:58:37.905Z,20.17
2019-01-27T04:01:07.178Z,19.03
2019-01-27T04:03:36.255Z,20.13
2019-01-27T04:06:05.380Z,18.73
2019-01-27T04:08:34.761Z,17.70
2019-01-27T04:11:03.816Z,19.30
2019-01-27T04:13:32.962Z,17.23
2019-01-27T04:16:02.141Z,17.20
2019-01-27T04:18:31.267Z,20.47
2019-01-27T04:21:00.363Z,19.47
2019-01-27T04:23:29.518Z,19.20
2019-01-27T04:25:58.754Z,19.63
2019-01-27T04:28:27.825Z,21.20
2019-01-27T04:30:56.985Z,18.47
2019-01-27T04:33:26.047Z,19.07
2019-01-27T04:35:55.129Z,18.53
2019-01-27T04:38:24.258Z,22.00
2019-01-27T04:40:53.433Z,22.03
2019-01-27T04:43:22.536Z,22.63
2019-01-27T04:45:51.622Z,18.90
2019-01-27T04:48:20.811Z,21.43
2019-01-27T04:50:49.912Z,23.23
2019-01-27T04:53:19.056Z,21.57
2019-01-27T04:55:48.135Z,19.27
2019-01-27T04:58:17.297Z,22.13
2019-01-27T05:00:46.401Z,18.23
2019-01-27T05:03:40.215Z,18.03
2019-01-27T05:06:09.319Z,17.23
2019-01-27T05:08:38.507Z,20.53
2019-01-27T05:11:07.612Z,20.07
2019-01-27T05:13:36.708Z,21.40
2019-01-27T05:16:06.182Z,22.30
2019-01-27T05:18:35.246Z,21.03
2019-01-27T05:21:04.338Z,16.53
2019-01-27T05:23:33.469Z,21.40
2019-01-27T05:26:02.586Z,20.60
2019-01-27T05:28:31.706Z,15.97
2019-01-27T05:31:00.849Z,21.40
2019-01-27T05:33:29.934Z,20.10
2019-01-27T05:35:59.003Z,18.00
2019-01-27T05:38:28.151Z,22.00
2019-01-27T05:40:57.319Z,18.97
2019-01-27T05:43:26.415Z,18.07
2019-01-27T05:45:55.472Z,19.60
2019-01-27T05:48:24.673Z,16.53
2019-01-27T05:50:53.739Z,19.30
2019-01-27T05:53:22.857Z,20.40
2019-01-27T05:55:52.006Z,18.07
2019-01-27T05:58:21.053Z,20.77
2019-01-27T06:00:50.134Z,20.13
2019-01-27T06:03:19.264Z,20.93
2019-01-27T06:05:48.373Z,23.03
2019-01-27T06:08:17.453Z,20.87
2019-01-27T06:10:46.644Z,24.83
2019-01-27T06:13:15.811Z,23.40
2019-01-27T06:15:44.899Z,23.73
2019-01-27T06:18:14.018Z,19.80
2019-01-27T06:20:43.119Z,21.97
2019-01-27T06:23:12.275Z,22.10
2019-01-27T06:25:41.344Z,20.97
2019-01-27T06:28:10.427Z,22.43
2019-01-27T06:30:39.798Z,20.80
2019-01-27T06:33:32.339Z,22.83
2019-01-27T06:36:01.484Z,20.97
2019-01-27T06:38:30.566Z,22.37
2019-01-27T06:40:59.694Z,19.40
2019-01-27T06:43:28.822Z,22.40
2019-01-27T06:45:57.956Z,24.00
2019-01-27T06:48:27.038Z,19.67
2019-01-27T06:50:56.157Z,21.77
2019-01-27T06:53:25.285Z,22.40
2019-01-27T06:55:54.645Z,19.77
2019-01-27T06:58:26.851Z,20.97
2019-01-27T07:01:27.032Z,15.27
2019-01-27T07:04:16.278Z,18.57
2019-01-27T07:06:58.970Z,15.53
2019-01-27T07:09:49.430Z,17.97
2019-01-27T07:12:34.314Z,17.73
2019-01-27T07:15:22.447Z,18.17
2019-01-27T07:18:16.280Z,17.47
2019-01-27T07:20:57.472Z,17.87
2019-01-27T07:23:43.894Z,19.00
2019-01-27T07:26:35.117Z,19.93
2019-01-27T07:29:28.970Z,19.80
2019-01-27T07:32:10.992Z,19.50
2019-01-27T07:35:11.202Z,18.10
2019-01-27T07:37:47.388Z,17.77
2019-01-27T07:40:24.649Z,19.40
2019-01-27T07:43:06.096Z,22.53
2019-01-27T07:45:59.996Z,18.73
2019-01-27T07:48:53.368Z,18.03
2019-01-27T07:51:41.799Z,16.93
2019-01-27T07:54:39.083Z,19.13
2019-01-27T07:57:24.234Z,20.43
2019-01-27T08:00:04.074Z,17.23
2019-01-27T08:02:52.092Z,20.00
2019-01-27T08:05:38.541Z,20.77
2019-01-27T08:08:26.632Z,18.50
2019-01-27T08:11:26.514Z,22.53
2019-01-27T08:14:09.996Z,17.23
2019-01-27T08:16:58.140Z,17.27
2019-01-27T08:19:44.638Z,16.50
2019-01-27T08:22:31.304Z,18.27
2019-01-27T08:25:17.892Z,20.20
2019-01-27T08:28:02.581Z,17.50
2019-01-27T08:30:49.240Z,20.40
2019-01-27T08:33:39.865Z,19.60
2019-01-27T08:36:30.851Z,21.40
2019-01-27T08:39:28.096Z,18.57
2019-01-27T08:42:14.930Z,20.07
2019-01-27T08:45:07.765Z,17.43
2019-01-27T08:47:36.918Z,17.80
2019-01-27T08:50:09.259Z,19.30
2019-01-27T08:52:38.381Z,15.53
2019-01-27T08:55:08.500Z,21.53
2019-01-27T08:57:37.631Z,22.93
2019-01-27T09:00:08.371Z,21.47
2019-01-27T09:03:01.318Z,23.33
2019-01-27T09:05:41.134Z,20.60
2019-01-27T09:08:44.461Z,21.63
2019-01-27T09:11:41.662Z,14.47
2019-01-27T09:14:30.366Z,16.30
2019-01-27T09:17:24.427Z,18.93
2019-01-27T09:20:06.117Z,19.03
2019-01-27T09:22:54.289Z,18.87
2019-01-27T09:25:40.767Z,17.50
2019-01-27T09:28:18.438Z,18.50
2019-01-27T09:31:06.500Z,16.67
2019-01-27T09:33:45.758Z,15.77
2019-01-27T09:36:33.819Z,19.63
2019-01-27T09:39:34.138Z,14.93
2019-01-27T09:42:27.369Z,19.60
2019-01-27T09:45:21.314Z,15.37
2019-01-27T09:48:18.233Z,17.60
2019-01-27T09:51:04.904Z,19.17
2019-01-27T09:53:58.703Z,17.57
2019-01-27T09:56:49.907Z,19.03
2019-01-27T09:59:32.419Z,19.20
2019-01-27T10:02:11.924Z,20.77
2019-01-27T10:05:00.003Z,17.13
2019-01-27T10:07:46.633Z,19.87
2019-01-27T10:10:25.667Z,22.23
2019-01-27T10:13:12.478Z,22.77
2019-01-27T10:15:55.264Z,21.23
2019-01-27T10:18:43.320Z,20.13
2019-01-27T10:21:37.269Z,18.40
2019-01-27T10:24:22.562Z,16.70
2019-01-27T10:27:05.774Z,17.80
2019-01-27T10:29:59.835Z,18.47
2019-01-27T10:32:37.060Z,18.27
2019-01-27T10:35:23.932Z,18.27
2019-01-27T10:38:12.207Z,20.93
2019-01-27T10:41:03.196Z,18.07
2019-01-27T10:43:41.435Z,18.60
2019-01-27T10:46:19.442Z,17.83
2019-01-27T10:49:01.436Z,16.00
2019-01-27T10:51:48.063Z,16.50
2019-01-27T10:54:30.184Z,19.47
2019-01-27T10:57:21.234Z,17.43
2019-01-27T11:00:02.066Z,18.90
2019-01-27T11:02:48.984Z,18.07
2019-01-27T11:05:48.960Z,20.77
2019-01-27T11:08:51.930Z,24.43
2019-01-27T11:11:36.844Z,22.17
2019-01-27T11:14:23.582Z,23.03
2019-01-27T11:17:21.312Z,25.63
2019-01-27T11:19:57.502Z,26.33
2019-01-27T11:22:45.159Z,24.27
2019-01-27T11:25:31.873Z,22.70
2019-01-27T11:28:18.789Z,20.60
2019-01-27T11:31:06.860Z,18.53
2019-01-27T11:33:56.087Z,14.50
2019-01-27T11:36:34.722Z,17.20
2019-01-27T11:39:18.713Z,13.97
2019-01-27T11:42:18.741Z,15.03
2019-01-27T11:45:10.572Z,14.80
2019-01-27T11:47:59.212Z,14.53
2019-01-27T11:50:50.331Z,17.13
2019-01-27T11:53:19.471Z,18.43
2019-01-27T11:55:48.586Z,19.37
2019-01-27T11:58:17.671Z,20.47
2019-01-27T12:00:50.821Z,19.70
2019-01-27T12:03:20.044Z,19.90
2019-01-27T12:05:49.228Z,21.23
2019-01-27T12:08:18.319Z,21.30
2019-01-27T12:10:47.439Z,18.73
2019-01-27T12:13:16.603Z,17.80
2019-01-27T12:15:45.738Z,20.87
2019-01-27T12:18:14.998Z,19.67
2019-01-27T12:20:44.831Z,15.30
2019-01-27T12:23:14.442Z,13.50
2019-01-27T12:25:43.517Z,12.70
2019-01-27T12:28:12.745Z,13.73
2019-01-27T12:30:41.976Z,12.80
2019-01-27T12:33:11.109Z,13.20
2019-01-27T12:35:40.264Z,16.33
2019-01-27T12:38:09.441Z,15.33
2019-01-27T12:40:38.542Z,18.37
2019-01-27T12:43:07.700Z,17.77
2019-01-27T12:45:36.895Z,15.73
2019-01-27T12:48:06.009Z,14.83
2019-01-27T12:50:35.138Z,13.50
2019-01-27T12:53:04.347Z,13.73
2019-01-27T12:55:33.481Z,14.60
2019-01-27T12:58:02.536Z,14.63
2019-01-27T13:00:37.676Z,12.73
2019-01-27T13:03:06.751Z,15.40
2019-01-27T13:05:35.887Z,13.33
2019-01-27T13:08:05.022Z,13.20
2019-01-27T13:10:34.161Z,14.83
2019-01-27T13:13:03.264Z,15.57
2019-01-27T13:15:32.390Z,15.80
2019-01-27T13:18:01.585Z,17.03
2019-01-27T13:20:30.843Z,15.83
2019-01-27T13:22:59.938Z,15.43
2019-01-27T13:25:29.165Z,15.90
2019-01-27T13:27:58.256Z,12.03
2019-01-27T13:30:27.391Z,14.47
2019-01-27T13:32:56.456Z,18.30
2019-01-27T13:35:25.583Z,16.83
2019-01-27T13:37:54.713Z,11.40
2019-01-27T13:40:23.827Z,11.57
2019-01-27T13:42:52.956Z,12.80
2019-01-27T13:45:24.139Z,11.93
2019-01-27T13:47:53.233Z,11.00
2019-01-27T13:50:22.303Z,12.87
2019-01-27T13:52:51.443Z,13.30
2019-01-27T13:55:22.837Z,13.97
2019-01-27T13:57:51.904Z,13.37
2019-01-27T14:00:28.734Z,12.20
2019-01-27T14:02:57.842Z,11.97
2019-01-27T14:05:26.925Z,11.43
2019-01-27T14:07:56.043Z,11.80
2019-01-27T14:10:26.177Z,13.10
2019-01-27T14:12:55.331Z,12.97
2019-01-27T14:15:26.302Z,12.27
2019-01-27T14:17:55.486Z,12.33
2019-01-27T14:20:24.717Z,13.43
2019-01-27T14:22:54.056Z,13.40
2019-01-27T14:25:24.588Z,12.90
2019-01-27T14:27:53.666Z,13.53
2019-01-27T14:30:25.097Z,14.70
2019-01-27T14:32:54.357Z,14.57
2019-01-27T14:35:23.484Z,18.40
2019-01-27T14:37:52.555Z,16.83
2019-01-27T14:40:23.504Z,14.10
2019-01-27T14:42:52.648Z,13.30
2019-01-27T14:45:23.558Z,13.90
2019-01-27T14:47:52.666Z,13.67
2019-01-27T14:50:27.458Z,14.70
2019-01-27T14:52:56.639Z,13.30
2019-01-27T14:55:25.751Z,14.50
2019-01-27T14:57:54.840Z,15.00
2019-01-27T15:00:26.563Z,15.37
2019-01-27T15:02:55.644Z,15.37
2019-01-27T15:05:24.767Z,13.87
2019-01-27T15:07:53.888Z,13.80
2019-01-27T15:10:23.020Z,15.77
2019-01-27T15:12:52.100Z,15.33
2019-01-27T15:15:22.053Z,15.63
2019-01-27T15:17:51.274Z,16.70
2019-01-27T15:20:25.845Z,15.33
2019-01-27T15:22:55.100Z,14.90
2019-01-27T15:25:24.254Z,15.17
2019-01-27T15:27:53.333Z,16.40
2019-01-27T15:30:27.539Z,16.73
2019-01-27T15:32:56.700Z,16.27
2019-01-27T15:35:25.818Z,16.73
2019-01-27T15:37:54.880Z,17.93
2019-01-27T15:40:24.004Z,15.87
2019-01-27T15:42:53.110Z,17.33
2019-01-27T15:45:26.649Z,16.80
2019-01-27T15:47:55.923Z,16.40
2019-01-27T15:50:27.220Z,17.93
2019-01-27T15:52:56.320Z,17.60
2019-01-27T15:55:25.435Z,19.33
2019-01-27T15:57:54.578Z,21.43
2019-01-27T16:00:25.466Z,17.77
2019-01-27T16:02:54.579Z,21.03
2019-01-27T16:05:23.656Z,23.13
2019-01-27T16:07:52.835Z,34.73
2019-01-27T16:10:22.962Z,20.47
2019-01-27T16:12:51.978Z,24.60
2019-01-27T16:15:26.231Z,17.87
2019-01-27T16:17:55.451Z,16.33
2019-01-27T16:20:24.758Z,19.67
2019-01-27T16:23:03.860Z,18.57
2019-01-27T16:25:33.005Z,15.73
2019-01-27T16:28:02.128Z,16.93
2019-01-27T16:30:53.198Z,17.13
2019-01-27T16:33:35.099Z,16.03
2019-01-27T16:36:04.229Z,14.17
2019-01-27T16:38:33.283Z,14.90
2019-01-27T16:41:02.424Z,16.70
2019-01-27T16:43:31.499Z,15.50
2019-01-27T16:46:00.640Z,15.77
2019-01-27T16:48:29.741Z,15.10
2019-01-27T16:50:58.860Z,15.30
2019-01-27T16:53:27.976Z,14.10
2019-01-27T16:55:57.101Z,14.00
2019-01-27T16:58:26.264Z,13.90
2019-01-27T17:00:55.924Z,10.37
2019-01-27T17:03:25.161Z,11.37
2019-01-27T17:05:54.270Z,13.00
2019-01-27T17:08:23.317Z,13.53
2019-01-27T17:10:52.414Z,8.87
2019-01-27T17:13:21.583Z,10.73
2019-01-27T17:15:50.744Z,9.97
2019-01-27T17:18:19.835Z,11.57
2019-01-27T17:20:49.012Z,10.50
2019-01-27T17:23:18.370Z,11.30
2019-01-27T17:25:47.423Z,10.93
2019-01-27T17:28:16.622Z,10.90
2019-01-27T17:30:45.753Z,9.40
2019-01-27T17:33:14.882Z,10.43
2019-01-27T17:35:43.955Z,8.70
2019-01-27T17:38:13.074Z,9.30
2019-01-27T17:40:42.152Z,9.07
2019-01-27T17:43:11.270Z,8.90
2019-01-27T17:45:40.445Z,8.77
2019-01-27T17:48:09.515Z,9.30
2019-01-27T17:50:38.666Z,10.07
2019-01-27T17:53:07.795Z,9.27
2019-01-27T17:55:40.525Z,9.30
2019-01-27T17:58:29.301Z,8.97
2019-01-27T18:01:16.073Z,9.87
2019-01-27T18:04:16.290Z,9.93
2019-01-27T18:07:07.332Z,10.20
2019-01-27T18:10:10.561Z,11.10
2019-01-27T18:12:44.155Z,10.27
2019-01-27T18:15:13.251Z,12.37
2019-01-27T18:17:42.352Z,13.27
2019-01-27T18:20:13.427Z,13.37
2019-01-27T18:22:42.556Z,14.37
2019-01-27T18:25:12.969Z,15.50
2019-01-27T18:27:42.090Z,15.63
2019-01-27T18:30:15.313Z,18.57
2019-01-27T18:32:44.403Z,20.43
2019-01-27T18:35:13.540Z,19.90
2019-01-27T18:37:42.935Z,20.20
2019-01-27T18:40:12.216Z,21.73
2019-01-27T18:42:41.365Z,19.90
2019-01-27T18:45:11.848Z,19.37
2019-01-27T18:47:40.973Z,21.93
2019-01-27T18:50:12.068Z,25.13
2019-01-27T18:52:41.135Z,23.53
2019-01-27T18:55:32.223Z,24.20
2019-01-27T18:58:18.720Z,25.37
2019-01-27T19:01:18.930Z,25.47
2019-01-27T19:04:03.634Z,23.70
2019-01-27T19:06:42.911Z,26.03
2019-01-27T19:09:30.919Z,24.10
2019-01-27T19:12:24.923Z,28.53
2019-01-27T19:15:11.668Z,26.53
2019-01-27T19:17:58.431Z,32.27
2019-01-27T19:20:35.681Z,28.63
2019-01-27T19:23:23.844Z,31.40
2019-01-27T19:26:06.204Z,29.50
2019-01-27T19:28:51.319Z,30.33
2019-01-27T19:31:36.692Z,30.53
2019-01-27T19:34:30.931Z,31.17
2019-01-27T19:37:31.187Z,27.57
2019-01-27T19:40:14.563Z,32.80
2019-01-27T19:42:53.793Z,37.93
2019-01-27T19:45:31.824Z,32.53
2019-01-27T19:48:18.583Z,29.40
2019-01-27T19:51:06.631Z,27.53
2019-01-27T19:53:45.530Z,26.73
2019-01-27T19:56:42.787Z,29.00
2019-01-27T19:59:34.047Z,26.37
2019-01-27T20:02:36.985Z,26.40
2019-01-27T20:05:32.106Z,26.73
2019-01-27T20:08:35.108Z,26.27
2019-01-27T20:11:24.561Z,26.90
2019-01-27T20:14:02.688Z,26.63
2019-01-27T20:16:49.088Z,27.03
2019-01-27T20:19:23.313Z,27.40
2019-01-27T20:22:26.535Z,25.97
2019-01-27T20:25:29.483Z,26.57
2019-01-27T20:28:16.100Z,27.43
2019-01-27T20:31:19.265Z,28.10
2019-01-27T20:33:58.300Z,29.77
2019-01-27T20:36:49.185Z,28.00
2019-01-27T20:39:52.165Z,28.50
2019-01-27T20:42:33.858Z,28.83
2019-01-27T20:45:08.498Z,28.03
2019-01-27T20:48:08.633Z,28.80
2019-01-27T20:50:59.712Z,29.90
2019-01-27T20:53:46.157Z,30.40
2019-01-27T20:56:40.320Z,31.67
2019-01-27T20:59:31.170Z,31.00
2019-01-27T21:02:16.686Z,32.77
2019-01-27T21:05:03.121Z,33.23
2019-01-27T21:07:40.649Z,31.90
2019-01-27T21:10:33.002Z,31.77
2019-01-27T21:13:14.146Z,34.43
2019-01-27T21:15:52.339Z,33.53
2019-01-27T21:18:29.078Z,33.40
2019-01-27T21:20:58.344Z,34.07
2019-01-27T21:23:27.464Z,33.23
2019-01-27T21:25:56.529Z,33.53
2019-01-27T21:28:26.027Z,31.00
2019-01-27T21:30:55.222Z,34.00
2019-01-27T21:33:24.343Z,34.10
2019-01-27T21:35:53.425Z,35.00
2019-01-27T21:38:22.520Z,34.00
2019-01-27T21:40:51.721Z,32.97
2019-01-27T21:43:20.980Z,33.17
2019-01-27T21:45:50.076Z,31.73
2019-01-27T21:48:19.217Z,32.07
2019-01-27T21:50:48.357Z,31.03
2019-01-27T21:53:17.467Z,31.03
2019-01-27T21:55:46.593Z,30.70
2019-01-27T21:58:15.950Z,31.33
2019-01-27T22:00:45.008Z,32.93
2019-01-27T22:03:14.112Z,32.97
2019-01-27T22:05:43.218Z,32.70
2019-01-27T22:08:12.464Z,30.90
2019-01-27T22:10:41.576Z,32.43
2019-01-27T22:13:10.746Z,31.13
2019-01-27T22:15:40.979Z,30.07
2019-01-27T22:18:10.095Z,27.67
2019-01-27T22:20:39.181Z,27.60
2019-01-27T22:23:08.336Z,28.40
2019-01-27T22:25:37.743Z,27.37
2019-01-27T22:28:06.866Z,28.27
2019-01-27T22:30:36.321Z,28.73
2019-01-27T22:33:05.424Z,29.97
2019-01-27T22:35:34.489Z,28.30
2019-01-27T22:38:03.584Z,27.50
2019-01-27T22:40:32.706Z,27.23
2019-01-27T22:43:01.836Z,27.57
2019-01-27T22:45:31.041Z,27.90
2019-01-27T22:48:00.491Z,29.57
2019-01-27T22:50:29.695Z,29.63
2019-01-27T22:52:58.958Z,29.93
2019-01-27T22:55:28.064Z,28.70
2019-01-27T22:57:57.211Z,28.97
2019-01-27T23:00:56.088Z,29.33
2019-01-27T23:03:25.582Z,31.63
2019-01-27T23:05:54.712Z,29.63
2019-01-27T23:08:23.812Z,31.63
2019-01-27T23:10:52.999Z,30.97
2019-01-27T23:13:22.699Z,30.33
2019-01-27T23:15:51.859Z,31.67
2019-01-27T23:18:21.064Z,30.30
2019-01-27T23:20:50.193Z,29.73
2019-01-27T23:23:19.299Z,30.03
2019-01-27T23:25:50.323Z,28.10
2019-01-27T23:28:19.403Z,29.87
2019-01-27T23:30:48.643Z,31.20
2019-01-27T23:33:18.009Z,27.60
2019-01-27T23:35:47.292Z,29.30
2019-01-27T23:38:16.563Z,29.33
2019-01-27T23:40:46.015Z,28.77
2019-01-27T23:43:15.443Z,29.90
2019-01-27T23:45:44.617Z,33.03
2019-01-27T23:48:13.843Z,29.83
2019-01-27T23:50:43.047Z,31.90
2019-01-27T23:53:12.163Z,30.27
2019-01-27T23:55:41.687Z,30.67
2019-01-27T23:58:11.245Z,30.03
